This is the latest recevied weather packets stored in our database for station/object XE2G-31. If no packets are shown the sender has not sent any weather packets the latest 10 day(s).
| Time | Temp. | Humidity | Pressure | Rain* | Wind** | Luminosity | Snow |
|---|---|---|---|---|---|---|---|
| 1777886491 | 16.11° C | 76% | 870 hPa | - | - | - | - |
| 1777885544 | 15.56° C | 76% | 870 hPa | - | - | - | - |
| 1777884597 | 15.56° C | 77% | 871 hPa | - | - | - | - |
| 1777883650 | 15° C | 78% | 871 hPa | - | - | - | - |
| 1777882704 | 16.11° C | 77% | 871 hPa | - | - | - | - |
| 1777881757 | 15.56° C | 76% | 871 hPa | - | - | - | - |
| 1777880810 | 15.56° C | 76% | 871 hPa | - | - | - | - |
| 1777879863 | 15.56° C | 76% | 872 hPa | - | - | - | - |
| 1777878916 | 15.56° C | 76% | 872 hPa | - | - | - | - |
| 1777877969 | 16.11° C | 74% | 872 hPa | - | - | - | - |
| 1777877023 | 15.56° C | 74% | 873 hPa | - | - | - | - |
| 1777876076 | 16.11° C | 73% | 873 hPa | - | - | - | - |
| 1777875129 | 16.11° C | 72% | 873 hPa | - | - | - | - |
| 1777874182 | 17.22° C | 69% | 873 hPa | - | - | - | - |
| 1777873235 | 17.22° C | 69% | 873 hPa | - | - | - | - |
| 1777872289 | 17.22° C | 67% | 874 hPa | - | - | - | - |
| 1777871342 | 17.22° C | 70% | 874 hPa | - | - | - | - |
| 1777870395 | 17.22° C | 69% | 874 hPa | - | - | - | - |
| 1777869448 | 17.78° C | 66% | 874 hPa | - | - | - | - |
| 1777867554 | 18.33° C | 64% | 874 hPa | - | - | - | - |
| 1777866608 | 17.78° C | 65% | 874 hPa | - | - | - | - |
| 1777865661 | 18.89° C | 62% | 874 hPa | - | - | - | - |
| 1777864714 | 18.33° C | 64% | 874 hPa | - | - | - | - |
| 1777863768 | 18.33° C | 62% | 874 hPa | - | - | - | - |
| 1777862820 | 18.33° C | 62% | 874 hPa | - | - | - | - |
* Rain since midnight (hover to see other rain measurements)
** Current wind speed in m/s (hover to see current wind gust speed)